sensor_id;sensor_type;location;lat;lon;timestamp;P1;durP1;ratioP1;P2;durP2;ratioP2
6527;SDS011;64597;42.664;23.256;2023-12-14T00:01:11;17.38;;;7.78;;
6527;SDS011;64597;42.664;23.256;2023-12-14T00:03:38;13.10;;;7.18;;
6527;SDS011;64597;42.664;23.256;2023-12-14T00:06:06;14.32;;;8.85;;
6527;SDS011;64597;42.664;23.256;2023-12-14T00:08:32;18.25;;;9.05;;
6527;SDS011;64597;42.664;23.256;2023-12-14T00:11:02;14.82;;;9.05;;
6527;SDS011;64597;42.664;23.256;2023-12-14T00:13:37;15.27;;;7.85;;
6527;SDS011;64597;42.664;23.256;2023-12-14T00:16:03;15.38;;;8.93;;
6527;SDS011;64597;42.664;23.256;2023-12-14T00:18:29;17.95;;;7.80;;
6527;SDS011;64597;42.664;23.256;2023-12-14T00:20:55;14.15;;;7.35;;
6527;SDS011;64597;42.664;23.256;2023-12-14T00:23:21;15.55;;;7.43;;
6527;SDS011;64597;42.664;23.256;2023-12-14T00:25:47;13.55;;;7.70;;
6527;SDS011;64597;42.664;23.256;2023-12-14T00:28:12;16.23;;;8.60;;
6527;SDS011;64597;42.664;23.256;2023-12-14T00:30:38;13.10;;;7.75;;
6527;SDS011;64597;42.664;23.256;2023-12-14T00:33:04;15.07;;;8.23;;
6527;SDS011;64597;42.664;23.256;2023-12-14T00:35:29;14.85;;;7.55;;
6527;SDS011;64597;42.664;23.256;2023-12-14T00:37:55;17.30;;;7.18;;
6527;SDS011;64597;42.664;23.256;2023-12-14T00:40:20;10.30;;;6.55;;
6527;SDS011;64597;42.664;23.256;2023-12-14T00:42:46;14.63;;;7.03;;
6527;SDS011;64597;42.664;23.256;2023-12-14T00:45:11;12.32;;;6.45;;
6527;SDS011;64597;42.664;23.256;2023-12-14T00:47:37;13.75;;;6.93;;
6527;SDS011;64597;42.664;23.256;2023-12-14T00:50:02;12.65;;;6.38;;
6527;SDS011;64597;42.664;23.256;2023-12-14T00:52:28;10.43;;;5.20;;
6527;SDS011;64597;42.664;23.256;2023-12-14T00:54:53;11.68;;;6.75;;
6527;SDS011;64597;42.664;23.256;2023-12-14T00:57:19;10.60;;;5.45;;
6527;SDS011;64597;42.664;23.256;2023-12-14T00:59:44;10.55;;;5.65;;
6527;SDS011;64597;42.664;23.256;2023-12-14T01:02:10;11.45;;;6.60;;
6527;SDS011;64597;42.664;23.256;2023-12-14T01:04:36;13.55;;;5.75;;
6527;SDS011;64597;42.664;23.256;2023-12-14T01:07:01;9.65;;;5.47;;
6527;SDS011;64597;42.664;23.256;2023-12-14T01:09:26;11.98;;;6.03;;
6527;SDS011;64597;42.664;23.256;2023-12-14T01:11:52;13.18;;;6.18;;
6527;SDS011;64597;42.664;23.256;2023-12-14T01:14:17;11.05;;;6.32;;
6527;SDS011;64597;42.664;23.256;2023-12-14T01:16:43;10.55;;;6.13;;
6527;SDS011;64597;42.664;23.256;2023-12-14T01:19:08;14.38;;;6.65;;
6527;SDS011;64597;42.664;23.256;2023-12-14T01:21:33;12.82;;;6.18;;
6527;SDS011;64597;42.664;23.256;2023-12-14T01:23:59;13.23;;;6.15;;
6527;SDS011;64597;42.664;23.256;2023-12-14T01:26:28;10.38;;;6.25;;
6527;SDS011;64597;42.664;23.256;2023-12-14T01:28:53;11.20;;;6.60;;
6527;SDS011;64597;42.664;23.256;2023-12-14T01:31:19;13.65;;;7.80;;
6527;SDS011;64597;42.664;23.256;2023-12-14T01:33:48;9.27;;;5.68;;
6527;SDS011;64597;42.664;23.256;2023-12-14T01:36:19;13.13;;;5.35;;
6527;SDS011;64597;42.664;23.256;2023-12-14T01:38:48;10.52;;;6.57;;
6527;SDS011;64597;42.664;23.256;2023-12-14T01:41:13;12.15;;;6.55;;
6527;SDS011;64597;42.664;23.256;2023-12-14T01:43:39;8.00;;;4.85;;
6527;SDS011;64597;42.664;23.256;2023-12-14T01:46:04;11.52;;;5.72;;
6527;SDS011;64597;42.664;23.256;2023-12-14T01:48:30;8.32;;;5.30;;
6527;SDS011;64597;42.664;23.256;2023-12-14T01:50:55;11.68;;;6.15;;
6527;SDS011;64597;42.664;23.256;2023-12-14T01:53:21;9.98;;;5.65;;
6527;SDS011;64597;42.664;23.256;2023-12-14T01:55:47;8.40;;;4.55;;
6527;SDS011;64597;42.664;23.256;2023-12-14T01:58:12;9.55;;;5.78;;
6527;SDS011;64597;42.664;23.256;2023-12-14T02:03:18;10.02;;;4.85;;
6527;SDS011;64597;42.664;23.256;2023-12-14T02:05:44;9.60;;;5.25;;
6527;SDS011;64597;42.664;23.256;2023-12-14T02:08:09;11.52;;;5.30;;
6527;SDS011;64597;42.664;23.256;2023-12-14T02:10:35;8.20;;;4.57;;
6527;SDS011;64597;42.664;23.256;2023-12-14T02:13:01;8.77;;;4.30;;
6527;SDS011;64597;42.664;23.256;2023-12-14T02:15:27;7.90;;;4.78;;
6527;SDS011;64597;42.664;23.256;2023-12-14T02:17:53;7.93;;;4.15;;
6527;SDS011;64597;42.664;23.256;2023-12-14T02:20:18;10.07;;;4.88;;
6527;SDS011;64597;42.664;23.256;2023-12-14T02:22:53;6.95;;;4.45;;
6527;SDS011;64597;42.664;23.256;2023-12-14T02:25:20;7.97;;;4.35;;
6527;SDS011;64597;42.664;23.256;2023-12-14T02:27:46;8.05;;;4.53;;
6527;SDS011;64597;42.664;23.256;2023-12-14T02:30:12;11.25;;;4.53;;
6527;SDS011;64597;42.664;23.256;2023-12-14T02:32:38;7.82;;;4.43;;
6527;SDS011;64597;42.664;23.256;2023-12-14T02:35:05;6.45;;;4.30;;
6527;SDS011;64597;42.664;23.256;2023-12-14T02:37:31;6.30;;;4.13;;
6527;SDS011;64597;42.664;23.256;2023-12-14T02:39:57;6.32;;;3.78;;
6527;SDS011;64597;42.664;23.256;2023-12-14T02:42:23;6.82;;;3.80;;
6527;SDS011;64597;42.664;23.256;2023-12-14T02:44:49;6.97;;;4.05;;
6527;SDS011;64597;42.664;23.256;2023-12-14T02:47:14;8.00;;;4.45;;
6527;SDS011;64597;42.664;23.256;2023-12-14T02:49:39;6.75;;;3.50;;
6527;SDS011;64597;42.664;23.256;2023-12-14T02:52:05;5.50;;;3.75;;
6527;SDS011;64597;42.664;23.256;2023-12-14T02:54:30;5.97;;;3.80;;
6527;SDS011;64597;42.664;23.256;2023-12-14T02:56:56;7.93;;;3.60;;
6527;SDS011;64597;42.664;23.256;2023-12-14T02:59:21;8.38;;;3.45;;
6527;SDS011;64597;42.664;23.256;2023-12-14T03:01:47;6.68;;;3.90;;
6527;SDS011;64597;42.664;23.256;2023-12-14T03:04:12;5.47;;;3.45;;
6527;SDS011;64597;42.664;23.256;2023-12-14T03:06:37;8.82;;;4.50;;
6527;SDS011;64597;42.664;23.256;2023-12-14T03:09:03;7.53;;;3.78;;
6527;SDS011;64597;42.664;23.256;2023-12-14T03:11:28;9.07;;;3.63;;
6527;SDS011;64597;42.664;23.256;2023-12-14T03:13:54;7.43;;;3.88;;
6527;SDS011;64597;42.664;23.256;2023-12-14T03:16:19;6.22;;;2.97;;
6527;SDS011;64597;42.664;23.256;2023-12-14T03:18:45;5.32;;;2.90;;
6527;SDS011;64597;42.664;23.256;2023-12-14T03:21:10;5.35;;;3.35;;
6527;SDS011;64597;42.664;23.256;2023-12-14T03:23:36;6.72;;;3.47;;
6527;SDS011;64597;42.664;23.256;2023-12-14T03:26:01;7.80;;;4.30;;
6527;SDS011;64597;42.664;23.256;2023-12-14T03:28:27;7.15;;;3.90;;
6527;SDS011;64597;42.664;23.256;2023-12-14T03:30:53;7.32;;;3.45;;
6527;SDS011;64597;42.664;23.256;2023-12-14T03:33:18;10.20;;;4.03;;
6527;SDS011;64597;42.664;23.256;2023-12-14T03:35:44;5.93;;;3.05;;
6527;SDS011;64597;42.664;23.256;2023-12-14T03:38:11;5.35;;;2.90;;
6527;SDS011;64597;42.664;23.256;2023-12-14T03:40:38;6.40;;;3.90;;
6527;SDS011;64597;42.664;23.256;2023-12-14T03:43:04;14.27;;;5.93;;
6527;SDS011;64597;42.664;23.256;2023-12-14T03:45:29;14.35;;;6.47;;
6527;SDS011;64597;42.664;23.256;2023-12-14T03:47:55;13.00;;;6.18;;
6527;SDS011;64597;42.664;23.256;2023-12-14T03:50:20;11.85;;;5.40;;
6527;SDS011;64597;42.664;23.256;2023-12-14T03:52:46;9.68;;;4.40;;
6527;SDS011;64597;42.664;23.256;2023-12-14T03:55:11;8.95;;;4.93;;
6527;SDS011;64597;42.664;23.256;2023-12-14T03:57:37;12.50;;;6.97;;
6527;SDS011;64597;42.664;23.256;2023-12-14T04:00:03;12.27;;;6.40;;
6527;SDS011;64597;42.664;23.256;2023-12-14T04:02:28;9.00;;;5.05;;
6527;SDS011;64597;42.664;23.256;2023-12-14T04:04:54;13.07;;;6.47;;
6527;SDS011;64597;42.664;23.256;2023-12-14T04:07:19;11.68;;;6.13;;
6527;SDS011;64597;42.664;23.256;2023-12-14T04:09:45;8.27;;;4.75;;
6527;SDS011;64597;42.664;23.256;2023-12-14T04:14:38;10.85;;;4.90;;
6527;SDS011;64597;42.664;23.256;2023-12-14T04:17:04;8.65;;;5.22;;
6527;SDS011;64597;42.664;23.256;2023-12-14T04:19:29;11.85;;;6.00;;
6527;SDS011;64597;42.664;23.256;2023-12-14T04:21:55;14.85;;;6.72;;
6527;SDS011;64597;42.664;23.256;2023-12-14T04:24:20;15.02;;;6.05;;
6527;SDS011;64597;42.664;23.256;2023-12-14T04:26:47;13.90;;;6.43;;
6527;SDS011;64597;42.664;23.256;2023-12-14T04:29:12;10.98;;;6.10;;
6527;SDS011;64597;42.664;23.256;2023-12-14T04:31:38;12.57;;;6.10;;
6527;SDS011;64597;42.664;23.256;2023-12-14T04:34:03;11.60;;;6.05;;
6527;SDS011;64597;42.664;23.256;2023-12-14T04:36:29;8.45;;;5.93;;
6527;SDS011;64597;42.664;23.256;2023-12-14T04:38:54;9.15;;;5.47;;
6527;SDS011;64597;42.664;23.256;2023-12-14T04:41:20;10.30;;;5.10;;
6527;SDS011;64597;42.664;23.256;2023-12-14T04:43:45;9.25;;;4.72;;
6527;SDS011;64597;42.664;23.256;2023-12-14T04:46:11;8.85;;;4.97;;
6527;SDS011;64597;42.664;23.256;2023-12-14T04:48:36;5.15;;;2.40;;
6527;SDS011;64597;42.664;23.256;2023-12-14T04:51:01;6.63;;;3.83;;
6527;SDS011;64597;42.664;23.256;2023-12-14T04:53:27;7.22;;;4.18;;
6527;SDS011;64597;42.664;23.256;2023-12-14T04:55:52;7.07;;;4.15;;
6527;SDS011;64597;42.664;23.256;2023-12-14T04:58:18;8.60;;;4.90;;
6527;SDS011;64597;42.664;23.256;2023-12-14T05:00:43;8.52;;;4.47;;
6527;SDS011;64597;42.664;23.256;2023-12-14T05:03:08;9.38;;;5.28;;
6527;SDS011;64597;42.664;23.256;2023-12-14T05:05:35;7.85;;;3.88;;
6527;SDS011;64597;42.664;23.256;2023-12-14T05:08:00;7.22;;;4.15;;
6527;SDS011;64597;42.664;23.256;2023-12-14T05:10:26;7.88;;;4.57;;
6527;SDS011;64597;42.664;23.256;2023-12-14T05:12:51;13.07;;;5.55;;
6527;SDS011;64597;42.664;23.256;2023-12-14T05:15:17;9.45;;;5.00;;
6527;SDS011;64597;42.664;23.256;2023-12-14T05:17:44;8.23;;;4.85;;
6527;SDS011;64597;42.664;23.256;2023-12-14T05:20:10;10.13;;;5.68;;
6527;SDS011;64597;42.664;23.256;2023-12-14T05:22:36;10.48;;;5.60;;
6527;SDS011;64597;42.664;23.256;2023-12-14T05:25:05;10.55;;;5.60;;
6527;SDS011;64597;42.664;23.256;2023-12-14T05:27:31;8.57;;;5.70;;
6527;SDS011;64597;42.664;23.256;2023-12-14T05:29:57;10.23;;;5.53;;
6527;SDS011;64597;42.664;23.256;2023-12-14T05:32:22;13.18;;;6.20;;
6527;SDS011;64597;42.664;23.256;2023-12-14T05:34:48;8.65;;;5.60;;
6527;SDS011;64597;42.664;23.256;2023-12-14T05:37:13;14.18;;;6.82;;
6527;SDS011;64597;42.664;23.256;2023-12-14T05:39:41;12.52;;;7.38;;
6527;SDS011;64597;42.664;23.256;2023-12-14T05:42:07;11.13;;;6.90;;
6527;SDS011;64597;42.664;23.256;2023-12-14T05:44:32;14.15;;;7.60;;
6527;SDS011;64597;42.664;23.256;2023-12-14T05:46:58;16.83;;;9.18;;
6527;SDS011;64597;42.664;23.256;2023-12-14T05:49:23;16.10;;;8.85;;
6527;SDS011;64597;42.664;23.256;2023-12-14T05:51:48;17.08;;;10.45;;
6527;SDS011;64597;42.664;23.256;2023-12-14T05:54:17;17.25;;;11.68;;
6527;SDS011;64597;42.664;23.256;2023-12-14T05:56:48;22.23;;;12.57;;
6527;SDS011;64597;42.664;23.256;2023-12-14T05:59:13;13.85;;;9.88;;
6527;SDS011;64597;42.664;23.256;2023-12-14T06:01:39;15.18;;;10.07;;
6527;SDS011;64597;42.664;23.256;2023-12-14T06:04:04;14.20;;;8.57;;
6527;SDS011;64597;42.664;23.256;2023-12-14T06:06:30;11.70;;;6.72;;
6527;SDS011;64597;42.664;23.256;2023-12-14T06:08:55;13.32;;;8.30;;
6527;SDS011;64597;42.664;23.256;2023-12-14T06:11:21;12.23;;;7.10;;
6527;SDS011;64597;42.664;23.256;2023-12-14T06:13:46;12.88;;;7.72;;
6527;SDS011;64597;42.664;23.256;2023-12-14T06:16:12;11.68;;;7.78;;
6527;SDS011;64597;42.664;23.256;2023-12-14T06:18:38;16.52;;;10.13;;
6527;SDS011;64597;42.664;23.256;2023-12-14T06:21:06;20.17;;;9.15;;
6527;SDS011;64597;42.664;23.256;2023-12-14T06:23:32;15.00;;;8.70;;
6527;SDS011;64597;42.664;23.256;2023-12-14T06:25:57;23.70;;;11.15;;
6527;SDS011;64597;42.664;23.256;2023-12-14T06:28:23;13.18;;;7.18;;
6527;SDS011;64597;42.664;23.256;2023-12-14T06:30:49;14.13;;;6.88;;
6527;SDS011;64597;42.664;23.256;2023-12-14T06:33:14;22.00;;;9.88;;
6527;SDS011;64597;42.664;23.256;2023-12-14T06:35:40;15.68;;;8.25;;
6527;SDS011;64597;42.664;23.256;2023-12-14T06:38:05;12.85;;;8.15;;
6527;SDS011;64597;42.664;23.256;2023-12-14T06:40:30;25.98;;;11.32;;
6527;SDS011;64597;42.664;23.256;2023-12-14T06:42:56;13.23;;;6.32;;
6527;SDS011;64597;42.664;23.256;2023-12-14T06:45:21;19.08;;;8.50;;
6527;SDS011;64597;42.664;23.256;2023-12-14T06:47:47;12.27;;;6.50;;
6527;SDS011;64597;42.664;23.256;2023-12-14T06:50:12;10.43;;;6.47;;
6527;SDS011;64597;42.664;23.256;2023-12-14T06:52:39;12.52;;;7.38;;
6527;SDS011;64597;42.664;23.256;2023-12-14T06:55:04;11.55;;;6.78;;
6527;SDS011;64597;42.664;23.256;2023-12-14T06:57:31;10.93;;;6.68;;
6527;SDS011;64597;42.664;23.256;2023-12-14T06:59:56;10.73;;;6.13;;
6527;SDS011;64597;42.664;23.256;2023-12-14T07:02:22;16.13;;;6.80;;
6527;SDS011;64597;42.664;23.256;2023-12-14T07:04:48;11.85;;;5.97;;
6527;SDS011;64597;42.664;23.256;2023-12-14T07:07:14;13.30;;;6.45;;
6527;SDS011;64597;42.664;23.256;2023-12-14T07:09:40;9.30;;;6.18;;
6527;SDS011;64597;42.664;23.256;2023-12-14T07:12:06;14.85;;;7.35;;
6527;SDS011;64597;42.664;23.256;2023-12-14T07:14:33;15.80;;;7.97;;
6527;SDS011;64597;42.664;23.256;2023-12-14T07:16:58;13.75;;;8.88;;
6527;SDS011;64597;42.664;23.256;2023-12-14T07:19:26;15.80;;;9.00;;
6527;SDS011;64597;42.664;23.256;2023-12-14T07:21:51;18.50;;;10.10;;
6527;SDS011;64597;42.664;23.256;2023-12-14T07:24:17;17.83;;;8.10;;
6527;SDS011;64597;42.664;23.256;2023-12-14T07:26:42;19.17;;;10.40;;
6527;SDS011;64597;42.664;23.256;2023-12-14T07:29:08;15.57;;;9.30;;
6527;SDS011;64597;42.664;23.256;2023-12-14T07:31:33;16.30;;;10.38;;
6527;SDS011;64597;42.664;23.256;2023-12-14T07:33:59;16.20;;;9.60;;
6527;SDS011;64597;42.664;23.256;2023-12-14T07:36:24;15.40;;;9.23;;
6527;SDS011;64597;42.664;23.256;2023-12-14T07:38:49;18.27;;;10.70;;
6527;SDS011;64597;42.664;23.256;2023-12-14T07:41:16;18.58;;;10.18;;
6527;SDS011;64597;42.664;23.256;2023-12-14T07:43:41;17.98;;;9.50;;
6527;SDS011;64597;42.664;23.256;2023-12-14T07:48:43;17.17;;;10.13;;
6527;SDS011;64597;42.664;23.256;2023-12-14T07:51:08;20.40;;;11.13;;
6527;SDS011;64597;42.664;23.256;2023-12-14T07:53:34;19.45;;;9.27;;
6527;SDS011;64597;42.664;23.256;2023-12-14T07:55:59;18.17;;;8.48;;
6527;SDS011;64597;42.664;23.256;2023-12-14T07:58:27;16.75;;;11.15;;
6527;SDS011;64597;42.664;23.256;2023-12-14T08:00:53;14.07;;;6.95;;
6527;SDS011;64597;42.664;23.256;2023-12-14T08:03:18;15.82;;;7.85;;
6527;SDS011;64597;42.664;23.256;2023-12-14T08:05:43;16.13;;;8.35;;
6527;SDS011;64597;42.664;23.256;2023-12-14T08:08:12;45.13;;;17.70;;
6527;SDS011;64597;42.664;23.256;2023-12-14T08:10:37;50.58;;;18.13;;
6527;SDS011;64597;42.664;23.256;2023-12-14T08:13:03;18.00;;;8.55;;
6527;SDS011;64597;42.664;23.256;2023-12-14T08:15:28;16.08;;;7.70;;
6527;SDS011;64597;42.664;23.256;2023-12-14T08:17:55;14.38;;;6.70;;
6527;SDS011;64597;42.664;23.256;2023-12-14T08:20:20;19.08;;;9.15;;
6527;SDS011;64597;42.664;23.256;2023-12-14T08:22:46;16.48;;;9.18;;
6527;SDS011;64597;42.664;23.256;2023-12-14T08:25:12;18.60;;;8.15;;
6527;SDS011;64597;42.664;23.256;2023-12-14T08:27:38;35.67;;;8.57;;
6527;SDS011;64597;42.664;23.256;2023-12-14T08:30:04;26.05;;;7.32;;
6527;SDS011;64597;42.664;23.256;2023-12-14T08:32:30;14.63;;;7.00;;
6527;SDS011;64597;42.664;23.256;2023-12-14T08:34:55;19.55;;;6.90;;
6527;SDS011;64597;42.664;23.256;2023-12-14T08:37:21;18.13;;;7.03;;
6527;SDS011;64597;42.664;23.256;2023-12-14T08:39:46;11.90;;;5.72;;
6527;SDS011;64597;42.664;23.256;2023-12-14T08:42:12;11.07;;;5.97;;
6527;SDS011;64597;42.664;23.256;2023-12-14T08:44:40;15.75;;;5.78;;
6527;SDS011;64597;42.664;23.256;2023-12-14T08:47:06;10.80;;;5.10;;
6527;SDS011;64597;42.664;23.256;2023-12-14T08:49:34;11.43;;;4.93;;
6527;SDS011;64597;42.664;23.256;2023-12-14T08:51:59;12.88;;;5.68;;
6527;SDS011;64597;42.664;23.256;2023-12-14T08:54:25;13.30;;;5.35;;
6527;SDS011;64597;42.664;23.256;2023-12-14T08:56:50;7.45;;;4.10;;
6527;SDS011;64597;42.664;23.256;2023-12-14T08:59:17;9.95;;;4.50;;
6527;SDS011;64597;42.664;23.256;2023-12-14T09:01:45;12.43;;;4.68;;
6527;SDS011;64597;42.664;23.256;2023-12-14T09:04:11;10.73;;;3.78;;
6527;SDS011;64597;42.664;23.256;2023-12-14T09:06:36;7.57;;;3.40;;
6527;SDS011;64597;42.664;23.256;2023-12-14T09:09:02;6.03;;;2.95;;
6527;SDS011;64597;42.664;23.256;2023-12-14T09:11:28;9.07;;;4.28;;
6527;SDS011;64597;42.664;23.256;2023-12-14T09:13:54;7.05;;;3.38;;
6527;SDS011;64597;42.664;23.256;2023-12-14T09:16:20;5.82;;;2.90;;
6527;SDS011;64597;42.664;23.256;2023-12-14T09:18:46;14.90;;;3.67;;
6527;SDS011;64597;42.664;23.256;2023-12-14T09:21:11;8.07;;;2.97;;
6527;SDS011;64597;42.664;23.256;2023-12-14T09:23:37;10.68;;;3.63;;
6527;SDS011;64597;42.664;23.256;2023-12-14T09:26:02;7.20;;;2.95;;
6527;SDS011;64597;42.664;23.256;2023-12-14T09:28:28;6.07;;;3.03;;
6527;SDS011;64597;42.664;23.256;2023-12-14T09:30:53;6.18;;;3.00;;
6527;SDS011;64597;42.664;23.256;2023-12-14T09:33:19;16.17;;;3.95;;
6527;SDS011;64597;42.664;23.256;2023-12-14T09:35:44;5.45;;;3.00;;
6527;SDS011;64597;42.664;23.256;2023-12-14T09:38:10;6.47;;;3.15;;
6527;SDS011;64597;42.664;23.256;2023-12-14T09:40:38;5.82;;;3.33;;
6527;SDS011;64597;42.664;23.256;2023-12-14T09:43:04;10.88;;;4.70;;
6527;SDS011;64597;42.664;23.256;2023-12-14T09:45:30;19.65;;;8.02;;
6527;SDS011;64597;42.664;23.256;2023-12-14T09:47:56;16.85;;;7.47;;
6527;SDS011;64597;42.664;23.256;2023-12-14T09:50:23;15.07;;;6.22;;
6527;SDS011;64597;42.664;23.256;2023-12-14T09:52:49;24.63;;;6.75;;
6527;SDS011;64597;42.664;23.256;2023-12-14T09:55:17;12.73;;;6.25;;
6527;SDS011;64597;42.664;23.256;2023-12-14T09:57:43;13.27;;;5.82;;
6527;SDS011;64597;42.664;23.256;2023-12-14T10:00:12;11.25;;;5.30;;
6527;SDS011;64597;42.664;23.256;2023-12-14T10:02:39;8.63;;;4.53;;
6527;SDS011;64597;42.664;23.256;2023-12-14T10:05:09;7.40;;;3.38;;
6527;SDS011;64597;42.664;23.256;2023-12-14T10:07:42;12.77;;;4.32;;
6527;SDS011;64597;42.664;23.256;2023-12-14T10:10:10;7.05;;;3.97;;
6527;SDS011;64597;42.664;23.256;2023-12-14T10:12:53;12.60;;;4.85;;
6527;SDS011;64597;42.664;23.256;2023-12-14T10:15:19;8.60;;;4.43;;
6527;SDS011;64597;42.664;23.256;2023-12-14T10:17:45;6.95;;;4.55;;
6527;SDS011;64597;42.664;23.256;2023-12-14T10:20:21;8.82;;;5.53;;
6527;SDS011;64597;42.664;23.256;2023-12-14T10:22:47;10.48;;;5.10;;
6527;SDS011;64597;42.664;23.256;2023-12-14T10:25:14;9.35;;;5.05;;
6527;SDS011;64597;42.664;23.256;2023-12-14T10:27:40;10.68;;;5.32;;
6527;SDS011;64597;42.664;23.256;2023-12-14T10:30:06;9.95;;;4.93;;
6527;SDS011;64597;42.664;23.256;2023-12-14T10:32:33;12.25;;;5.63;;
6527;SDS011;64597;42.664;23.256;2023-12-14T10:34:59;8.32;;;4.90;;
6527;SDS011;64597;42.664;23.256;2023-12-14T10:37:25;7.30;;;4.70;;
6527;SDS011;64597;42.664;23.256;2023-12-14T10:39:50;7.95;;;5.20;;
6527;SDS011;64597;42.664;23.256;2023-12-14T10:42:18;10.10;;;5.50;;
6527;SDS011;64597;42.664;23.256;2023-12-14T10:44:48;9.35;;;5.35;;
6527;SDS011;64597;42.664;23.256;2023-12-14T10:47:16;12.80;;;5.45;;
6527;SDS011;64597;42.664;23.256;2023-12-14T10:49:45;15.38;;;7.15;;
6527;SDS011;64597;42.664;23.256;2023-12-14T10:52:14;12.95;;;6.15;;
6527;SDS011;64597;42.664;23.256;2023-12-14T10:54:40;14.35;;;6.57;;
6527;SDS011;64597;42.664;23.256;2023-12-14T10:57:07;10.43;;;5.90;;
6527;SDS011;64597;42.664;23.256;2023-12-14T10:59:33;10.30;;;6.13;;
6527;SDS011;64597;42.664;23.256;2023-12-14T11:01:59;8.43;;;5.25;;
6527;SDS011;64597;42.664;23.256;2023-12-14T11:04:56;8.98;;;6.00;;
6527;SDS011;64597;42.664;23.256;2023-12-14T11:07:43;9.35;;;5.07;;
6527;SDS011;64597;42.664;23.256;2023-12-14T11:10:09;8.23;;;5.43;;
6527;SDS011;64597;42.664;23.256;2023-12-14T11:12:34;10.65;;;6.15;;
6527;SDS011;64597;42.664;23.256;2023-12-14T11:15:00;7.07;;;4.63;;
6527;SDS011;64597;42.664;23.256;2023-12-14T11:17:25;5.05;;;2.50;;
6527;SDS011;64597;42.664;23.256;2023-12-14T11:19:52;2.95;;;1.90;;
6527;SDS011;64597;42.664;23.256;2023-12-14T11:22:28;3.05;;;1.85;;
6527;SDS011;64597;42.664;23.256;2023-12-14T11:24:54;3.33;;;1.67;;
6527;SDS011;64597;42.664;23.256;2023-12-14T11:27:25;3.42;;;1.77;;
6527;SDS011;64597;42.664;23.256;2023-12-14T11:29:52;3.47;;;2.22;;
6527;SDS011;64597;42.664;23.256;2023-12-14T11:32:18;5.15;;;2.22;;
6527;SDS011;64597;42.664;23.256;2023-12-14T11:34:45;3.90;;;2.17;;
6527;SDS011;64597;42.664;23.256;2023-12-14T11:37:12;2.78;;;1.80;;
6527;SDS011;64597;42.664;23.256;2023-12-14T11:39:38;3.38;;;2.28;;
6527;SDS011;64597;42.664;23.256;2023-12-14T11:42:05;11.13;;;2.30;;
6527;SDS011;64597;42.664;23.256;2023-12-14T11:44:35;4.72;;;1.70;;
6527;SDS011;64597;42.664;23.256;2023-12-14T11:47:05;3.60;;;2.10;;
6527;SDS011;64597;42.664;23.256;2023-12-14T11:49:31;3.75;;;1.95;;
6527;SDS011;64597;42.664;23.256;2023-12-14T11:51:57;3.65;;;1.40;;
6527;SDS011;64597;42.664;23.256;2023-12-14T11:54:22;3.47;;;1.48;;
6527;SDS011;64597;42.664;23.256;2023-12-14T11:56:48;2.47;;;0.95;;
6527;SDS011;64597;42.664;23.256;2023-12-14T11:59:15;5.28;;;1.92;;
6527;SDS011;64597;42.664;23.256;2023-12-14T12:01:58;2.95;;;1.25;;
6527;SDS011;64597;42.664;23.256;2023-12-14T12:04:25;4.78;;;0.93;;
6527;SDS011;64597;42.664;23.256;2023-12-14T12:07:02;1.35;;;0.57;;
6527;SDS011;64597;42.664;23.256;2023-12-14T12:09:33;6.10;;;1.92;;
6527;SDS011;64597;42.664;23.256;2023-12-14T12:12:08;3.40;;;0.98;;
6527;SDS011;64597;42.664;23.256;2023-12-14T12:14:35;5.25;;;1.10;;
6527;SDS011;64597;42.664;23.256;2023-12-14T12:17:02;1.60;;;0.68;;
6527;SDS011;64597;42.664;23.256;2023-12-14T12:19:35;4.85;;;1.10;;
6527;SDS011;64597;42.664;23.256;2023-12-14T12:22:02;5.63;;;1.20;;
6527;SDS011;64597;42.664;23.256;2023-12-14T12:24:28;11.73;;;5.95;;
6527;SDS011;64597;42.664;23.256;2023-12-14T12:26:54;1.40;;;1.30;;
6527;SDS011;64597;42.664;23.256;2023-12-14T12:29:20;2.72;;;1.17;;
6527;SDS011;64597;42.664;23.256;2023-12-14T12:31:46;2.10;;;1.13;;
6527;SDS011;64597;42.664;23.256;2023-12-14T12:34:12;2.45;;;1.00;;
6527;SDS011;64597;42.664;23.256;2023-12-14T12:36:38;1.55;;;0.80;;
6527;SDS011;64597;42.664;23.256;2023-12-14T12:39:03;0.63;;;0.50;;
6527;SDS011;64597;42.664;23.256;2023-12-14T12:41:31;1.30;;;1.08;;
6527;SDS011;64597;42.664;23.256;2023-12-14T12:43:57;3.60;;;0.93;;
6527;SDS011;64597;42.664;23.256;2023-12-14T12:46:24;1.95;;;0.50;;
6527;SDS011;64597;42.664;23.256;2023-12-14T12:48:49;2.47;;;0.80;;
6527;SDS011;64597;42.664;23.256;2023-12-14T12:51:16;0.47;;;0.38;;
6527;SDS011;64597;42.664;23.256;2023-12-14T12:53:41;1.33;;;0.50;;
6527;SDS011;64597;42.664;23.256;2023-12-14T12:56:07;0.68;;;0.57;;
6527;SDS011;64597;42.664;23.256;2023-12-14T12:58:32;0.30;;;0.30;;
6527;SDS011;64597;42.664;23.256;2023-12-14T13:00:58;1.80;;;0.40;;
6527;SDS011;64597;42.664;23.256;2023-12-14T13:03:23;2.03;;;0.60;;
6527;SDS011;64597;42.664;23.256;2023-12-14T13:05:49;0.57;;;0.40;;
6527;SDS011;64597;42.664;23.256;2023-12-14T13:08:14;0.10;;;0.10;;
6527;SDS011;64597;42.664;23.256;2023-12-14T13:10:40;0.30;;;0.20;;
6527;SDS011;64597;42.664;23.256;2023-12-14T13:13:05;0.47;;;0.20;;
6527;SDS011;64597;42.664;23.256;2023-12-14T13:15:33;1.17;;;0.38;;
6527;SDS011;64597;42.664;23.256;2023-12-14T13:17:59;0.75;;;0.30;;
6527;SDS011;64597;42.664;23.256;2023-12-14T13:20:28;1.10;;;0.60;;
6527;SDS011;64597;42.664;23.256;2023-12-14T13:25:19;1.23;;;0.52;;
6527;SDS011;64597;42.664;23.256;2023-12-14T13:27:45;20.63;;;1.40;;
6527;SDS011;64597;42.664;23.256;2023-12-14T13:30:10;0.20;;;0.20;;
6527;SDS011;64597;42.664;23.256;2023-12-14T13:32:41;1.13;;;0.30;;
6527;SDS011;64597;42.664;23.256;2023-12-14T13:35:07;0.28;;;0.20;;
6527;SDS011;64597;42.664;23.256;2023-12-14T13:37:34;1.98;;;0.68;;
6527;SDS011;64597;42.664;23.256;2023-12-14T13:39:59;1.10;;;0.28;;
6527;SDS011;64597;42.664;23.256;2023-12-14T13:42:24;0.73;;;0.38;;
6527;SDS011;64597;42.664;23.256;2023-12-14T13:44:50;0.55;;;0.25;;
6527;SDS011;64597;42.664;23.256;2023-12-14T13:47:15;1.27;;;0.22;;
6527;SDS011;64597;42.664;23.256;2023-12-14T13:49:41;1.02;;;0.47;;
6527;SDS011;64597;42.664;23.256;2023-12-14T13:52:07;1.02;;;0.50;;
6527;SDS011;64597;42.664;23.256;2023-12-14T13:54:34;1.23;;;0.77;;
6527;SDS011;64597;42.664;23.256;2023-12-14T13:57:01;1.73;;;0.73;;
6527;SDS011;64597;42.664;23.256;2023-12-14T13:59:27;0.40;;;0.30;;
6527;SDS011;64597;42.664;23.256;2023-12-14T14:01:52;1.08;;;0.60;;
6527;SDS011;64597;42.664;23.256;2023-12-14T14:04:18;1.20;;;0.50;;
6527;SDS011;64597;42.664;23.256;2023-12-14T14:06:44;2.13;;;0.82;;
6527;SDS011;64597;42.664;23.256;2023-12-14T14:09:09;1.55;;;0.65;;
6527;SDS011;64597;42.664;23.256;2023-12-14T14:11:35;1.27;;;0.90;;
6527;SDS011;64597;42.664;23.256;2023-12-14T14:14:01;1.90;;;1.13;;
6527;SDS011;64597;42.664;23.256;2023-12-14T14:16:28;4.50;;;0.70;;
6527;SDS011;64597;42.664;23.256;2023-12-14T14:18:54;1.50;;;0.70;;
6527;SDS011;64597;42.664;23.256;2023-12-14T14:21:19;1.73;;;0.60;;
6527;SDS011;64597;42.664;23.256;2023-12-14T14:23:45;1.40;;;0.55;;
6527;SDS011;64597;42.664;23.256;2023-12-14T14:26:10;2.50;;;1.00;;
6527;SDS011;64597;42.664;23.256;2023-12-14T14:28:36;2.17;;;0.80;;
6527;SDS011;64597;42.664;23.256;2023-12-14T14:31:01;1.20;;;0.73;;
6527;SDS011;64597;42.664;23.256;2023-12-14T14:33:27;4.30;;;0.70;;
6527;SDS011;64597;42.664;23.256;2023-12-14T14:35:52;3.20;;;1.10;;
6527;SDS011;64597;42.664;23.256;2023-12-14T14:38:18;1.50;;;0.70;;
6527;SDS011;64597;42.664;23.256;2023-12-14T14:40:44;3.10;;;1.27;;
6527;SDS011;64597;42.664;23.256;2023-12-14T14:43:10;2.85;;;1.88;;
6527;SDS011;64597;42.664;23.256;2023-12-14T14:45:36;2.63;;;0.88;;